This is the latest recevied weather packets stored in our database for station/object DB0GMN-13. If no packets are shown the sender has not sent any weather packets the latest 10 day(s).
| Time | Temp. | Humidity | Pressure | Rain* | Wind** | Luminosity | Snow |
|---|---|---|---|---|---|---|---|
| 1777692339 | - | - | 1021.3 hPa | 0 mm | - | 2 W/m² | - |
| 1777691131 | - | - | 1021.5 hPa | 0 mm | - | 0 W/m² | - |
| 1777689320 | - | 99% | 1021.5 hPa | 0 mm | - | 0 W/m² | - |
| 1777688172 | - | 99% | 1021.6 hPa | 0 mm | - | 0 W/m² | - |
| 1777686963 | - | 99% | 1021.7 hPa | 0 mm | - | 0 W/m² | - |
| 1777684549 | - | 99% | 1022.1 hPa | 0 mm | - | 0 W/m² | - |
| 1777680946 | - | - | 1022.7 hPa | 0 mm | - | 0 W/m² | - |
| 1777680322 | - | - | 1022.7 hPa | 0 mm | - | 0 W/m² | - |
| 1777675552 | -1.11° C | 97% | 1023.2 hPa | 0 mm | - | 0 W/m² | - |
| 1777671926 | -1.11° C | 99% | 1023.5 hPa | 0 mm | - | 0 W/m² | - |
| 1777671343 | -1.11° C | 93% | 1023.5 hPa | 0 mm | - | 0 W/m² | - |
| 1777667759 | -1.11° C | 94% | 1023.6 hPa | 0 mm | - | 0 W/m² | - |
| 1777667156 | -1.11° C | 96% | 1023.8 hPa | 0 mm | - | 0 W/m² | - |
| 1777664742 | -1.11° C | 93% | 1023.7 hPa | 0 mm | - | 0 W/m² | - |
| 1777662929 | -1.11° C | 94% | 1024 hPa | 0 mm | - | 0 W/m² | - |
| 1777660595 | -1.11° C | 93% | 1024.1 hPa | 0 mm | - | 8 W/m² | - |
| 1777657553 | -1.11° C | 99% | 1024 hPa | 0 mm | - | 46 W/m² | - |
| 1777650973 | -1.11° C | 93% | 1024.9 hPa | 0 mm | - | 301 W/m² | - |
| 1777649765 | 1.67° C | 93% | 1024.9 hPa | 0 mm | - | 362 W/m² | - |
| 1777649160 | 15° C | 96% | 1025.1 hPa | 0 mm | - | 390 W/m² | - |
| 1777641994 | -1.11° C | 95% | 1026.4 hPa | 0 mm | - | 714 W/m² | - |
| 1777640787 | -1.11° C | 94% | 1026.4 hPa | 0 mm | - | 749 W/m² | - |
| 1777640163 | -1.11° C | 95% | 1026.5 hPa | 0 mm | - | 766 W/m² | - |
| 1777636542 | -1.11° C | 96% | 1027.1 hPa | 0 mm | - | 836 W/m² | - |
| 1777633522 | -1.11° C | 93% | 1027.4 hPa | 0 mm | - | 852 W/m² | - |
* Rain latest hour (hover to see other rain measurements)
** Current wind speed in m/s (hover to see current wind gust speed)